createdAt,value
2023-12-09T00:02:07.335Z,50.02
2023-12-09T00:04:34.782Z,50.16
2023-12-09T00:07:02.033Z,49.85
2023-12-09T00:09:30.861Z,49.59
2023-12-09T00:11:58.146Z,50.14
2023-12-09T00:14:25.503Z,49.91
2023-12-09T00:16:52.834Z,49.60
2023-12-09T00:19:20.639Z,49.94
2023-12-09T00:21:47.886Z,50.11
2023-12-09T00:24:15.295Z,49.70
2023-12-09T00:26:42.342Z,49.90
2023-12-09T00:29:09.788Z,49.78
2023-12-09T00:31:36.910Z,49.53
2023-12-09T00:34:04.355Z,49.79
2023-12-09T00:36:31.605Z,49.99
2023-12-09T00:38:59.145Z,49.85
2023-12-09T00:41:26.283Z,49.62
2023-12-09T00:43:53.547Z,49.86
2023-12-09T00:46:22.456Z,49.75
2023-12-09T00:48:50.277Z,50.00
2023-12-09T00:51:17.614Z,49.67
2023-12-09T00:53:45.006Z,49.80
2023-12-09T00:56:14.482Z,49.64
2023-12-09T00:58:42.345Z,50.11
2023-12-09T01:01:09.461Z,49.89
2023-12-09T01:03:36.944Z,49.90
2023-12-09T01:06:04.313Z,50.06
2023-12-09T01:08:31.748Z,49.49
2023-12-09T01:10:58.864Z,50.08
2023-12-09T01:13:26.344Z,49.63
2023-12-09T01:15:53.436Z,50.05
2023-12-09T01:18:20.919Z,49.78
2023-12-09T01:20:48.017Z,49.81
2023-12-09T01:23:15.416Z,49.93
2023-12-09T01:25:42.500Z,49.68
2023-12-09T01:28:09.818Z,50.11
2023-12-09T01:30:36.901Z,49.91
2023-12-09T01:33:04.474Z,50.09
2023-12-09T01:35:31.692Z,49.96
2023-12-09T01:37:59.193Z,49.75
2023-12-09T01:40:26.276Z,49.68
2023-12-09T01:42:54.797Z,50.04
2023-12-09T01:45:21.909Z,49.73
2023-12-09T01:47:49.689Z,49.86
2023-12-09T01:50:17.256Z,50.15
2023-12-09T01:52:44.630Z,50.01
2023-12-09T01:55:12.471Z,49.84
2023-12-09T01:57:40.259Z,49.93
2023-12-09T02:00:08.161Z,50.00
2023-12-09T02:02:35.712Z,49.64
2023-12-09T02:05:03.787Z,50.13
2023-12-09T02:07:31.460Z,50.12
2023-12-09T02:09:58.693Z,49.85
2023-12-09T02:12:32.270Z,49.80
2023-12-09T02:15:19.872Z,50.17
2023-12-09T02:17:53.502Z,49.77
2023-12-09T02:20:20.995Z,49.91
2023-12-09T02:22:48.521Z,50.10
2023-12-09T02:25:16.118Z,49.96
2023-12-09T02:27:48.777Z,49.91
2023-12-09T02:30:42.366Z,49.83
2023-12-09T02:33:12.049Z,50.04
2023-12-09T02:35:41.541Z,50.08
2023-12-09T02:38:09.414Z,50.07
2023-12-09T02:40:36.721Z,49.94
2023-12-09T02:43:05.038Z,49.79
2023-12-09T02:45:32.205Z,49.95
2023-12-09T02:47:59.841Z,49.66
2023-12-09T02:50:27.057Z,49.97
2023-12-09T02:52:54.343Z,50.01
2023-12-09T02:55:21.570Z,49.85
2023-12-09T02:57:48.998Z,49.64
2023-12-09T03:00:16.157Z,49.69
2023-12-09T03:02:44.089Z,49.60
2023-12-09T03:05:11.253Z,49.85
2023-12-09T03:07:38.628Z,49.88
2023-12-09T03:10:05.881Z,49.48
2023-12-09T03:12:33.392Z,49.92
2023-12-09T03:15:00.511Z,49.88
2023-12-09T03:17:28.125Z,49.88
2023-12-09T03:19:55.173Z,50.02
2023-12-09T03:22:22.544Z,49.97
2023-12-09T03:24:49.626Z,49.69
2023-12-09T03:27:17.021Z,49.58
2023-12-09T03:29:44.417Z,49.86
2023-12-09T03:32:11.734Z,49.88
2023-12-09T03:34:38.913Z,49.67
2023-12-09T03:37:06.465Z,49.74
2023-12-09T03:39:33.537Z,49.73
2023-12-09T03:42:00.880Z,49.73
2023-12-09T03:44:28.012Z,49.71
2023-12-09T03:46:55.329Z,49.79
2023-12-09T03:49:22.517Z,49.47
2023-12-09T03:51:49.957Z,49.54
2023-12-09T03:54:17.548Z,49.54
2023-12-09T03:56:45.779Z,49.63
2023-12-09T03:59:12.913Z,49.87
2023-12-09T04:01:49.875Z,49.79
2023-12-09T04:04:17.619Z,49.79
2023-12-09T04:06:45.126Z,49.47
2023-12-09T04:09:12.296Z,49.46
2023-12-09T04:11:39.741Z,49.51
2023-12-09T04:14:06.917Z,49.48
2023-12-09T04:16:34.245Z,49.32
2023-12-09T04:19:01.489Z,49.57
2023-12-09T04:21:28.952Z,49.35
2023-12-09T04:23:56.095Z,49.35
2023-12-09T04:26:24.729Z,49.28
2023-12-09T04:28:51.792Z,49.42
2023-12-09T04:31:19.148Z,49.23
2023-12-09T04:33:46.378Z,49.21
2023-12-09T04:36:14.871Z,48.97
2023-12-09T04:38:42.306Z,48.92
2023-12-09T04:41:09.621Z,49.32
2023-12-09T04:43:36.668Z,49.29
2023-12-09T04:46:04.451Z,48.87
2023-12-09T04:48:31.980Z,49.17
2023-12-09T04:50:59.437Z,48.91
2023-12-09T04:53:26.503Z,48.62
2023-12-09T04:55:53.822Z,48.69
2023-12-09T04:58:20.972Z,48.64
2023-12-09T05:00:48.322Z,49.00
2023-12-09T05:03:15.480Z,48.77
2023-12-09T05:05:43.521Z,48.60
2023-12-09T05:08:10.816Z,48.47
2023-12-09T05:10:38.159Z,48.46
2023-12-09T05:13:05.198Z,48.58
2023-12-09T05:15:33.645Z,48.61
2023-12-09T05:18:01.261Z,49.05
2023-12-09T05:20:28.696Z,48.62
2023-12-09T05:22:56.068Z,48.84
2023-12-09T05:25:23.367Z,49.12
2023-12-09T05:27:50.430Z,49.04
2023-12-09T05:30:17.841Z,48.80
2023-12-09T05:32:45.050Z,48.88
2023-12-09T05:35:12.493Z,49.01
2023-12-09T05:37:40.097Z,49.13
2023-12-09T05:40:07.997Z,48.97
2023-12-09T05:42:35.149Z,48.82
2023-12-09T05:45:02.631Z,48.95
2023-12-09T05:47:29.724Z,49.12
2023-12-09T05:49:57.093Z,49.22
2023-12-09T05:52:24.458Z,48.85
2023-12-09T05:54:52.017Z,49.08
2023-12-09T05:57:19.400Z,48.93
2023-12-09T05:59:46.724Z,49.20
2023-12-09T06:02:13.740Z,49.10
2023-12-09T06:04:41.488Z,48.84
2023-12-09T06:07:08.669Z,49.28
2023-12-09T06:09:36.036Z,49.17
2023-12-09T06:12:03.204Z,49.25
2023-12-09T06:14:30.714Z,49.26
2023-12-09T06:16:58.208Z,48.91
2023-12-09T06:19:25.554Z,49.23
2023-12-09T06:21:52.641Z,49.09
2023-12-09T06:24:20.013Z,49.08
2023-12-09T06:26:47.165Z,49.05
2023-12-09T06:29:15.609Z,49.06
2023-12-09T06:31:42.865Z,49.19
2023-12-09T06:34:10.578Z,49.18
2023-12-09T06:36:37.864Z,48.90
2023-12-09T06:39:05.713Z,48.96
2023-12-09T06:41:33.408Z,49.19
2023-12-09T06:44:00.709Z,49.11
2023-12-09T06:46:27.865Z,49.12
2023-12-09T06:48:55.524Z,49.39
2023-12-09T06:51:22.891Z,49.19
2023-12-09T06:53:50.471Z,49.32
2023-12-09T06:56:21.452Z,49.06
2023-12-09T06:58:49.252Z,49.19
2023-12-09T07:01:34.573Z,49.30
2023-12-09T07:04:02.113Z,49.40
2023-12-09T07:06:30.628Z,49.13
2023-12-09T07:08:58.550Z,48.80
2023-12-09T07:11:25.895Z,49.15
2023-12-09T07:13:53.263Z,49.04
2023-12-09T07:16:20.440Z,49.22
2023-12-09T07:18:48.607Z,49.12
2023-12-09T07:21:16.808Z,48.98
2023-12-09T07:23:44.817Z,48.92
2023-12-09T07:26:13.268Z,49.17
2023-12-09T07:28:40.699Z,49.06
2023-12-09T07:31:07.792Z,48.72
2023-12-09T07:33:35.621Z,48.89
2023-12-09T07:36:03.003Z,49.10
2023-12-09T07:38:30.413Z,48.76
2023-12-09T07:40:57.612Z,48.85
2023-12-09T07:43:24.931Z,49.04
2023-12-09T07:45:52.697Z,48.95
2023-12-09T07:48:20.183Z,48.78
2023-12-09T07:50:47.350Z,48.82
2023-12-09T07:53:14.738Z,49.00
2023-12-09T07:55:41.826Z,48.84
2023-12-09T07:58:09.146Z,48.73
2023-12-09T08:00:36.499Z,48.73
2023-12-09T08:03:04.798Z,49.19
2023-12-09T08:05:33.083Z,49.30
2023-12-09T08:08:00.481Z,49.21
2023-12-09T08:10:27.659Z,49.27
2023-12-09T08:12:54.994Z,49.11
2023-12-09T08:15:22.126Z,49.06
2023-12-09T08:17:49.631Z,49.17
2023-12-09T08:20:17.673Z,48.89
2023-12-09T08:22:45.061Z,49.01
2023-12-09T08:25:12.150Z,49.09
2023-12-09T08:27:39.626Z,49.18
2023-12-09T08:30:11.472Z,49.15
2023-12-09T08:32:42.943Z,49.20
2023-12-09T08:35:10.867Z,49.30
2023-12-09T08:37:39.575Z,49.43
2023-12-09T08:40:12.090Z,49.35
2023-12-09T08:42:43.714Z,49.02
2023-12-09T08:45:12.093Z,48.97
2023-12-09T08:47:42.716Z,49.03
2023-12-09T08:50:21.988Z,49.32
2023-12-09T08:52:54.518Z,49.16
2023-12-09T08:55:22.502Z,49.06
2023-12-09T08:57:50.536Z,48.74
2023-12-09T09:00:21.922Z,49.28
2023-12-09T09:02:49.987Z,48.74
2023-12-09T09:05:17.629Z,48.75
2023-12-09T09:07:45.613Z,48.92
2023-12-09T09:10:12.938Z,48.73
2023-12-09T09:12:40.491Z,48.89
2023-12-09T09:15:09.196Z,48.71
2023-12-09T09:17:37.512Z,48.89
2023-12-09T09:20:06.404Z,48.83
2023-12-09T09:22:34.721Z,49.15
2023-12-09T09:25:02.566Z,48.86
2023-12-09T09:27:30.437Z,48.75
2023-12-09T09:29:57.878Z,49.31
2023-12-09T09:32:25.682Z,48.84
2023-12-09T09:34:53.705Z,49.32
2023-12-09T09:37:22.048Z,49.31
2023-12-09T09:39:50.274Z,49.39
2023-12-09T09:42:27.327Z,49.34
2023-12-09T09:45:07.201Z,49.27
2023-12-09T09:47:38.332Z,49.40
2023-12-09T09:50:07.436Z,49.51
2023-12-09T09:52:38.600Z,49.49
2023-12-09T09:55:07.636Z,49.22
2023-12-09T09:57:35.472Z,49.11
2023-12-09T10:00:02.907Z,49.45
2023-12-09T10:02:32.416Z,49.68
2023-12-09T10:04:59.821Z,49.58
2023-12-09T10:07:27.745Z,49.79
2023-12-09T10:09:54.916Z,49.66
2023-12-09T10:12:22.337Z,49.81
2023-12-09T10:14:51.117Z,49.91
2023-12-09T10:17:18.718Z,50.00
2023-12-09T10:19:46.455Z,49.92
2023-12-09T10:22:14.126Z,50.06
2023-12-09T10:24:50.520Z,50.06
2023-12-09T10:27:23.544Z,50.40
2023-12-09T10:29:51.137Z,50.04
2023-12-09T10:32:19.063Z,50.23
2023-12-09T10:34:46.339Z,50.47
2023-12-09T10:37:14.168Z,50.38
2023-12-09T10:39:45.878Z,50.53
2023-12-09T10:42:13.370Z,50.85
2023-12-09T10:44:40.943Z,50.67
2023-12-09T10:47:08.323Z,50.38
2023-12-09T10:49:35.888Z,50.54
2023-12-09T10:52:03.519Z,50.36
2023-12-09T10:54:31.113Z,50.89
2023-12-09T10:56:59.563Z,50.72
2023-12-09T10:59:28.089Z,50.52
2023-12-09T11:01:55.591Z,50.45
2023-12-09T11:04:22.770Z,50.73
2023-12-09T11:06:50.659Z,50.63
2023-12-09T11:09:18.041Z,50.57
2023-12-09T11:11:46.193Z,50.70
2023-12-09T11:14:13.837Z,51.04
2023-12-09T11:16:47.365Z,50.78
2023-12-09T11:19:16.000Z,50.82
2023-12-09T11:21:44.265Z,50.62
2023-12-09T11:24:13.134Z,51.00
2023-12-09T11:26:42.070Z,50.92
2023-12-09T11:29:10.077Z,50.93
2023-12-09T11:31:41.316Z,50.93
2023-12-09T11:34:13.131Z,50.81
2023-12-09T11:36:40.779Z,51.32
2023-12-09T11:39:19.399Z,50.92
2023-12-09T11:41:47.926Z,51.03
2023-12-09T11:44:15.426Z,51.16
2023-12-09T11:46:43.282Z,51.05
2023-12-09T11:49:11.356Z,51.17
2023-12-09T11:51:39.987Z,50.93
2023-12-09T11:54:09.161Z,51.19
2023-12-09T11:56:40.846Z,51.16
2023-12-09T11:59:09.153Z,50.96
2023-12-09T12:01:41.592Z,50.98
2023-12-09T12:04:36.820Z,50.82
2023-12-09T12:07:06.222Z,51.18
2023-12-09T12:09:33.970Z,51.23
2023-12-09T12:12:03.746Z,50.88
2023-12-09T12:14:32.407Z,50.75
2023-12-09T12:17:00.333Z,50.84
2023-12-09T12:19:27.524Z,50.80
2023-12-09T12:21:55.445Z,50.87
2023-12-09T12:24:22.813Z,50.79
2023-12-09T12:26:50.209Z,50.92
2023-12-09T12:29:20.559Z,50.65
2023-12-09T12:31:51.240Z,51.08
2023-12-09T12:34:19.302Z,50.68
2023-12-09T12:36:48.185Z,50.81
2023-12-09T12:39:16.174Z,50.81
2023-12-09T12:41:43.627Z,51.09
2023-12-09T12:44:12.110Z,50.90
2023-12-09T12:46:39.624Z,51.21
2023-12-09T12:49:06.897Z,51.19
2023-12-09T12:51:34.554Z,51.18
2023-12-09T12:54:02.033Z,51.15
2023-12-09T12:56:30.028Z,51.32
2023-12-09T12:58:57.649Z,51.44
2023-12-09T13:01:25.448Z,51.79
2023-12-09T13:03:52.748Z,51.74
2023-12-09T13:06:20.362Z,51.73
2023-12-09T13:08:47.725Z,52.15
2023-12-09T13:11:15.147Z,51.77
2023-12-09T13:13:42.248Z,52.13
2023-12-09T13:16:10.025Z,51.94
2023-12-09T13:18:37.252Z,51.99
2023-12-09T13:21:05.152Z,52.25
2023-12-09T13:23:32.889Z,52.01
2023-12-09T13:26:01.232Z,52.22
2023-12-09T13:28:28.767Z,52.29
2023-12-09T13:30:56.457Z,52.46
2023-12-09T13:33:23.669Z,52.30
2023-12-09T13:35:51.292Z,52.52
2023-12-09T13:38:18.598Z,52.47
2023-12-09T13:40:47.339Z,52.46
2023-12-09T13:43:14.957Z,52.38
2023-12-09T13:45:42.429Z,52.83
2023-12-09T13:48:10.792Z,52.67
2023-12-09T13:50:40.877Z,52.58
2023-12-09T13:53:08.250Z,52.73
2023-12-09T13:55:35.866Z,52.97
2023-12-09T13:58:04.952Z,52.98
2023-12-09T14:00:32.471Z,52.95
2023-12-09T14:02:59.748Z,53.19
2023-12-09T14:05:28.234Z,52.93
2023-12-09T14:07:55.496Z,53.21
2023-12-09T14:10:23.703Z,52.94
2023-12-09T14:12:50.931Z,53.10
2023-12-09T14:15:18.668Z,52.98
2023-12-09T14:17:46.095Z,53.07
2023-12-09T14:20:16.220Z,53.14
2023-12-09T14:22:46.167Z,53.43
2023-12-09T14:25:13.674Z,53.17
2023-12-09T14:27:41.150Z,53.24
2023-12-09T14:30:12.073Z,53.32
2023-12-09T14:32:39.593Z,53.47
2023-12-09T14:35:08.349Z,53.69
2023-12-09T14:37:35.670Z,53.47
2023-12-09T14:40:04.943Z,53.45
2023-12-09T14:42:32.516Z,53.37
2023-12-09T14:45:00.072Z,53.22
2023-12-09T14:47:27.392Z,53.41
2023-12-09T14:49:55.020Z,53.46
2023-12-09T14:52:22.256Z,53.50
2023-12-09T14:54:49.697Z,53.54
2023-12-09T14:57:16.924Z,53.28
2023-12-09T14:59:44.844Z,53.67
2023-12-09T15:02:12.036Z,53.31
2023-12-09T15:04:39.450Z,53.51
2023-12-09T15:07:07.575Z,53.55
2023-12-09T15:09:35.163Z,53.41
2023-12-09T15:12:03.456Z,53.46
2023-12-09T15:14:31.588Z,53.43
2023-12-09T15:16:58.833Z,53.54
2023-12-09T15:19:26.357Z,53.53
2023-12-09T15:21:53.603Z,53.64
2023-12-09T15:24:23.249Z,53.68
2023-12-09T15:26:52.288Z,53.53
2023-12-09T15:29:19.729Z,53.56
2023-12-09T15:31:46.952Z,53.69
2023-12-09T15:34:14.753Z,53.61
2023-12-09T15:36:41.990Z,53.85
2023-12-09T15:39:09.378Z,53.96
2023-12-09T15:41:36.686Z,53.74
2023-12-09T15:44:04.275Z,53.83
2023-12-09T15:46:31.525Z,53.63
2023-12-09T15:49:01.261Z,54.02
2023-12-09T15:51:28.771Z,53.89
2023-12-09T15:53:56.206Z,54.15
2023-12-09T15:56:23.748Z,53.90
2023-12-09T15:58:51.463Z,54.16
2023-12-09T16:01:18.695Z,54.13
2023-12-09T16:03:46.155Z,54.07
2023-12-09T16:06:13.505Z,54.25
2023-12-09T16:08:40.991Z,54.22
2023-12-09T16:11:08.100Z,54.37
2023-12-09T16:13:35.565Z,54.55
2023-12-09T16:16:02.843Z,54.67
2023-12-09T16:18:31.348Z,54.79
2023-12-09T16:20:59.511Z,54.91
2023-12-09T16:23:27.896Z,55.25
2023-12-09T16:25:54.961Z,55.24
2023-12-09T16:28:22.536Z,54.96
2023-12-09T16:30:49.722Z,55.17
2023-12-09T16:33:17.292Z,55.08
2023-12-09T16:35:44.506Z,55.30
2023-12-09T16:38:11.981Z,55.17
2023-12-09T16:40:39.121Z,55.44
2023-12-09T16:43:06.581Z,55.49
2023-12-09T16:45:33.906Z,55.45
2023-12-09T16:48:01.605Z,55.58
2023-12-09T16:50:29.123Z,55.35
2023-12-09T16:52:56.489Z,55.53
2023-12-09T16:55:24.024Z,55.56
2023-12-09T16:57:51.516Z,55.51
2023-12-09T17:00:19.056Z,55.84
2023-12-09T17:02:46.456Z,55.61
2023-12-09T17:05:13.707Z,55.32
2023-12-09T17:07:41.226Z,55.61
2023-12-09T17:10:09.201Z,55.66
2023-12-09T17:12:37.867Z,55.55
2023-12-09T17:15:05.218Z,55.56
2023-12-09T17:17:32.629Z,55.41
2023-12-09T17:19:59.793Z,55.40
2023-12-09T17:22:32.141Z,55.41
2023-12-09T17:24:59.557Z,55.34
2023-12-09T17:27:27.397Z,55.21
2023-12-09T17:29:54.785Z,55.32
2023-12-09T17:32:22.282Z,55.31
2023-12-09T17:34:49.727Z,55.16
2023-12-09T17:37:17.352Z,55.40
2023-12-09T17:39:44.544Z,55.14
2023-12-09T17:42:12.060Z,55.40
2023-12-09T17:44:40.016Z,55.40
2023-12-09T17:47:07.909Z,55.14
2023-12-09T17:49:35.285Z,55.37
2023-12-09T17:52:03.147Z,55.25
2023-12-09T17:54:30.522Z,55.03
2023-12-09T17:56:57.930Z,55.10
2023-12-09T17:59:25.396Z,55.02
2023-12-09T18:01:52.822Z,55.23
2023-12-09T18:04:20.468Z,55.19
2023-12-09T18:06:48.017Z,55.23
2023-12-09T18:09:15.467Z,55.24
2023-12-09T18:11:42.890Z,54.98
2023-12-09T18:14:10.081Z,55.20
2023-12-09T18:16:37.490Z,55.06
2023-12-09T18:19:05.305Z,55.28
2023-12-09T18:21:32.906Z,55.27
2023-12-09T18:24:00.313Z,55.04
2023-12-09T18:26:27.735Z,55.15
2023-12-09T18:28:54.927Z,54.96
2023-12-09T18:31:23.312Z,54.97
2023-12-09T18:33:50.691Z,55.23
2023-12-09T18:36:18.245Z,54.91
2023-12-09T18:38:45.401Z,55.07
2023-12-09T18:41:12.782Z,55.05
2023-12-09T18:43:40.337Z,54.76
2023-12-09T18:46:07.822Z,54.86
2023-12-09T18:48:35.053Z,54.71
2023-12-09T18:51:04.363Z,54.75
2023-12-09T18:53:31.568Z,54.73
2023-12-09T18:55:59.700Z,54.73
2023-12-09T18:58:27.770Z,54.96
2023-12-09T19:01:04.538Z,54.76
2023-12-09T19:03:35.092Z,54.78
2023-12-09T19:06:02.626Z,54.64
2023-12-09T19:08:29.791Z,54.39
2023-12-09T19:10:58.088Z,54.79
2023-12-09T19:13:25.335Z,54.30
2023-12-09T19:15:53.065Z,54.50
2023-12-09T19:18:21.400Z,54.42
2023-12-09T19:20:48.844Z,54.31
2023-12-09T19:23:15.972Z,54.35
2023-12-09T19:25:43.441Z,54.42
2023-12-09T19:28:10.957Z,54.38
2023-12-09T19:30:38.353Z,54.08
2023-12-09T19:33:05.718Z,54.20
2023-12-09T19:35:33.472Z,54.44
2023-12-09T19:38:00.613Z,54.33
2023-12-09T19:40:28.035Z,54.28
2023-12-09T19:42:57.598Z,54.33
2023-12-09T19:45:28.472Z,54.25
2023-12-09T19:47:59.958Z,54.36
2023-12-09T19:50:27.743Z,53.95
2023-12-09T19:52:55.345Z,54.13
2023-12-09T19:55:22.822Z,54.06
2023-12-09T19:57:49.957Z,53.88
2023-12-09T20:00:17.519Z,54.30
2023-12-09T20:02:47.642Z,53.95
2023-12-09T20:05:15.635Z,54.08
2023-12-09T20:07:43.128Z,53.82
2023-12-09T20:10:11.545Z,53.85
2023-12-09T20:12:38.821Z,53.79
2023-12-09T20:15:07.512Z,54.09
2023-12-09T20:17:35.257Z,53.85
2023-12-09T20:20:03.194Z,53.77
2023-12-09T20:22:30.639Z,54.16
2023-12-09T20:24:58.323Z,54.07
2023-12-09T20:27:25.573Z,53.88
2023-12-09T20:29:55.250Z,53.90
2023-12-09T20:32:22.904Z,53.72
2023-12-09T20:34:50.812Z,53.92
2023-12-09T20:37:18.133Z,53.83
2023-12-09T20:39:45.730Z,53.93
2023-12-09T20:42:13.256Z,54.05
2023-12-09T20:44:41.400Z,53.66
2023-12-09T20:47:08.598Z,53.67
2023-12-09T20:49:36.389Z,53.60
2023-12-09T20:52:03.590Z,53.87
2023-12-09T20:54:31.070Z,53.73
2023-12-09T20:56:58.234Z,53.60
2023-12-09T20:59:25.689Z,53.76
2023-12-09T21:01:55.413Z,53.81
2023-12-09T21:04:24.278Z,53.70
2023-12-09T21:06:51.706Z,53.58
2023-12-09T21:09:19.216Z,53.92
2023-12-09T21:11:46.444Z,53.50
2023-12-09T21:14:14.049Z,53.56
2023-12-09T21:16:41.223Z,53.66
2023-12-09T21:19:08.785Z,53.64
2023-12-09T21:21:36.166Z,53.68
2023-12-09T21:24:03.611Z,53.50
2023-12-09T21:26:30.751Z,53.40
2023-12-09T21:28:58.186Z,53.25
2023-12-09T21:31:26.952Z,53.27
2023-12-09T21:33:54.448Z,53.31
2023-12-09T21:36:21.641Z,53.33
2023-12-09T21:38:49.041Z,53.35
2023-12-09T21:41:20.208Z,53.49
2023-12-09T21:43:48.385Z,53.40
2023-12-09T21:46:33.891Z,53.21
2023-12-09T21:49:01.485Z,53.37
2023-12-09T21:51:29.428Z,53.17
2023-12-09T21:53:56.995Z,53.25
2023-12-09T21:56:25.002Z,53.43
2023-12-09T21:58:53.075Z,52.97
2023-12-09T22:01:21.095Z,53.07
2023-12-09T22:03:49.235Z,53.24
2023-12-09T22:06:16.790Z,53.08
2023-12-09T22:08:44.505Z,53.04
2023-12-09T22:11:12.506Z,53.12
2023-12-09T22:13:40.459Z,53.07
2023-12-09T22:16:07.918Z,53.09
2023-12-09T22:18:36.182Z,53.07
2023-12-09T22:21:03.495Z,52.97
2023-12-09T22:23:30.914Z,52.93
2023-12-09T22:25:57.993Z,53.08
2023-12-09T22:28:26.836Z,52.96
2023-12-09T22:30:53.985Z,53.23
2023-12-09T22:33:21.689Z,53.00
2023-12-09T22:35:48.915Z,52.70
2023-12-09T22:38:16.326Z,52.88
2023-12-09T22:40:44.304Z,52.86
2023-12-09T22:43:12.529Z,53.07
2023-12-09T22:45:39.645Z,52.92
2023-12-09T22:48:07.295Z,52.76
2023-12-09T22:50:34.893Z,52.63
2023-12-09T22:53:02.290Z,52.96
2023-12-09T22:55:29.379Z,52.83
2023-12-09T22:57:56.902Z,52.88
2023-12-09T23:00:34.109Z,52.93
2023-12-09T23:03:02.656Z,52.66
2023-12-09T23:05:30.113Z,52.77
2023-12-09T23:07:57.534Z,52.79
2023-12-09T23:10:24.789Z,52.65
2023-12-09T23:12:52.366Z,52.62
2023-12-09T23:15:20.113Z,52.58
2023-12-09T23:17:47.772Z,52.75
2023-12-09T23:20:16.016Z,52.55
2023-12-09T23:22:43.816Z,52.80
2023-12-09T23:25:11.064Z,52.59
2023-12-09T23:27:38.488Z,52.68
2023-12-09T23:30:06.008Z,52.42
2023-12-09T23:32:34.177Z,52.46
2023-12-09T23:35:01.467Z,52.53
2023-12-09T23:37:28.973Z,52.45
2023-12-09T23:39:56.137Z,52.37
2023-12-09T23:42:23.806Z,52.38
2023-12-09T23:44:50.954Z,52.50
2023-12-09T23:47:18.331Z,52.31
2023-12-09T23:49:45.555Z,52.33
2023-12-09T23:52:13.079Z,52.45
2023-12-09T23:54:40.240Z,52.34
2023-12-09T23:57:08.683Z,52.55
2023-12-09T23:59:35.786Z,52.26
